SVA864 OEJN-VOBL
Flight info
| Callsign | SVA864 |
|---|---|
| Flight time | 4h 48m |
| Altitude | 37000 |
| Route | EGREP T532 KODIS Y214 RAPMA DCT DEGNO DCT DAPOL/N0482F390 L692 GISKA N569 UMILA L883 REXOD N563 GUNIM GUNIM7E |
| Aircraft | B77W/H-SDE1E2E3FGHIJ2J3J4J5M1RWXY/LB1D1 |
Departure
| Time | 2026-05-08 16:44 |
|---|---|
| Airport | King Abdulaziz International Airport (OEJN) |
Arrival
| Time | 2026-05-08 21:32 |
|---|---|
| Airport | Kempegowda International Airport Bengaluru (VOBL) |
| Time | Latitude | Longitude | Altitude | Speed | Heading |
|---|---|---|---|---|---|
| 2026-05-08 16:25 | 21.66929 | 39.17159 | 35 ft | 0 kts | 271° |
| 2026-05-08 16:30 | 21.66929 | 39.17166 | 34 ft | 4 kts | 271° |
| 2026-05-08 16:30 | 21.66928 | 39.17195 | 35 ft | 4 kts | 271° |
| 2026-05-08 16:30 | 21.66928 | 39.17221 | 35 ft | 4 kts | 269° |
| 2026-05-08 16:30 | 21.66933 | 39.17245 | 35 ft | 4 kts | 215° |
| 2026-05-08 16:31 | 21.66958 | 39.17253 | 35 ft | 4 kts | 182° |
| 2026-05-08 16:31 | 21.66974 | 39.17254 | 35 ft | 1 kts | 182° |
| 2026-05-08 16:31 | 21.66976 | 39.17254 | 35 ft | 0 kts | 182° |
| 2026-05-08 16:33 | 21.66972 | 39.17254 | 35 ft | 3 kts | 182° |
| 2026-05-08 16:34 | 21.66939 | 39.17252 | 35 ft | 5 kts | 181° |
| 2026-05-08 16:34 | 21.66904 | 39.17255 | 35 ft | 5 kts | 173° |
| 2026-05-08 16:34 | 21.66875 | 39.17276 | 35 ft | 5 kts | 121° |
| 2026-05-08 16:34 | 21.66873 | 39.17296 | 35 ft | 5 kts | 89° |
| 2026-05-08 16:35 | 21.66876 | 39.17318 | 35 ft | 5 kts | 79° |
| 2026-05-08 16:35 | 21.66888 | 39.17358 | 35 ft | 6 kts | 71° |
| 2026-05-08 16:35 | 21.66903 | 39.17403 | 35 ft | 7 kts | 70° |
| 2026-05-08 16:35 | 21.66921 | 39.17458 | 35 ft | 8 kts | 70° |
| 2026-05-08 16:36 | 21.66942 | 39.17520 | 35 ft | 9 kts | 70° |
| 2026-05-08 16:36 | 21.66967 | 39.17591 | 35 ft | 11 kts | 69° |
| 2026-05-08 16:36 | 21.66976 | 39.17668 | 35 ft | 11 kts | 121° |
| 2026-05-08 16:36 | 21.66906 | 39.17711 | 35 ft | 12 kts | 159° |
| 2026-05-08 16:37 | 21.66827 | 39.17742 | 35 ft | 12 kts | 160° |
| 2026-05-08 16:37 | 21.66748 | 39.17772 | 36 ft | 7 kts | 159° |
| 2026-05-08 16:37 | 21.66700 | 39.17792 | 35 ft | 7 kts | 159° |
| 2026-05-08 16:37 | 21.66662 | 39.17808 | 36 ft | 5 kts | 159° |
| 2026-05-08 16:38 | 21.66630 | 39.17821 | 36 ft | 5 kts | 159° |
| 2026-05-08 16:38 | 21.66610 | 39.17850 | 35 ft | 5 kts | 101° |
| 2026-05-08 16:38 | 21.66617 | 39.17886 | 36 ft | 2 kts | 73° |
| 2026-05-08 16:38 | 21.66617 | 39.17887 | 36 ft | 0 kts | 73° |
| 2026-05-08 16:40 | 21.66617 | 39.17889 | 36 ft | 2 kts | 73° |
| 2026-05-08 16:40 | 21.66635 | 39.17945 | 37 ft | 12 kts | 71° |
| 2026-05-08 16:40 | 21.66664 | 39.18026 | 37 ft | 10 kts | 55° |
| 2026-05-08 16:40 | 21.66730 | 39.18021 | 37 ft | 10 kts | 336° |
| 2026-05-08 16:41 | 21.66749 | 39.18012 | 37 ft | 0 kts | 338° |
| 2026-05-08 16:43 | 21.66801 | 39.17991 | 37 ft | 26 kts | 339° |
| 2026-05-08 16:43 | 21.67200 | 39.17833 | 36 ft | 95 kts | 340° |
| 2026-05-08 16:43 | 21.68013 | 39.17512 | 36 ft | 152 kts | 340° |
| 2026-05-08 16:44 | 21.69142 | 39.17065 | 110 ft | 186 kts | 339° |
| 2026-05-08 16:44 | 21.70393 | 39.16618 | 549 ft | 195 kts | 343° |
| 2026-05-08 16:44 | 21.71718 | 39.16288 | 1199 ft | 190 kts | 349° |
| 2026-05-08 16:44 | 21.73002 | 39.16086 | 1799 ft | 192 kts | 350° |
| 2026-05-08 16:45 | 21.74400 | 39.16049 | 1923 ft | 212 kts | 9° |
| 2026-05-08 16:45 | 21.75846 | 39.16626 | 2107 ft | 234 kts | 28° |
| 2026-05-08 16:45 | 21.77254 | 39.17621 | 2463 ft | 248 kts | 34° |
| 2026-05-08 16:45 | 21.78679 | 39.18729 | 2929 ft | 256 kts | 35° |
| 2026-05-08 16:46 | 21.80138 | 39.19876 | 3452 ft | 263 kts | 36° |
| 2026-05-08 16:46 | 21.81644 | 39.21057 | 3948 ft | 272 kts | 36° |
| 2026-05-08 16:46 | 21.82682 | 39.21874 | 4335 ft | 274 kts | 36° |
| 2026-05-08 16:46 | 21.84216 | 39.23073 | 4953 ft | 277 kts | 36° |
| 2026-05-08 16:47 | 21.85786 | 39.24283 | 5624 ft | 278 kts | 36° |
| 2026-05-08 16:47 | 21.87369 | 39.25508 | 6008 ft | 282 kts | 37° |
| 2026-05-08 16:47 | 21.88984 | 39.26757 | 6001 ft | 288 kts | 37° |
| 2026-05-08 16:47 | 21.90567 | 39.28084 | 6265 ft | 288 kts | 42° |
| 2026-05-08 16:48 | 21.92062 | 39.29546 | 6841 ft | 292 kts | 44° |
| 2026-05-08 16:48 | 21.93551 | 39.31044 | 7468 ft | 293 kts | 44° |
| 2026-05-08 16:48 | 21.95046 | 39.32557 | 8038 ft | 296 kts | 44° |
| 2026-05-08 16:48 | 21.96564 | 39.34082 | 8590 ft | 300 kts | 44° |
| 2026-05-08 16:49 | 21.98104 | 39.35612 | 9127 ft | 303 kts | 44° |
| 2026-05-08 16:49 | 21.99665 | 39.37160 | 9652 ft | 306 kts | 44° |
| 2026-05-08 16:49 | 22.01242 | 39.38723 | 10183 ft | 310 kts | 44° |
| 2026-05-08 16:49 | 22.02863 | 39.40329 | 10451 ft | 326 kts | 43° |
| 2026-05-08 16:50 | 22.04584 | 39.42030 | 10599 ft | 345 kts | 43° |
| 2026-05-08 16:50 | 22.06408 | 39.43827 | 10760 ft | 364 kts | 43° |
| 2026-05-08 16:50 | 22.08329 | 39.45719 | 10908 ft | 384 kts | 43° |
| 2026-05-08 16:50 | 22.10329 | 39.47690 | 11305 ft | 395 kts | 42° |
| 2026-05-08 16:51 | 22.12381 | 39.49715 | 11857 ft | 403 kts | 42° |
| 2026-05-08 16:51 | 22.14458 | 39.51769 | 12564 ft | 407 kts | 41° |
| 2026-05-08 16:51 | 22.16559 | 39.53842 | 13285 ft | 410 kts | 41° |
| 2026-05-08 16:51 | 22.18646 | 39.55900 | 13937 ft | 415 kts | 41° |
| 2026-05-08 16:52 | 22.20788 | 39.58016 | 14615 ft | 419 kts | 41° |
| 2026-05-08 16:52 | 22.22951 | 39.60153 | 15292 ft | 424 kts | 42° |
| 2026-05-08 16:52 | 22.25132 | 39.62311 | 15946 ft | 427 kts | 41° |
| 2026-05-08 16:52 | 22.27336 | 39.64492 | 16559 ft | 433 kts | 41° |
| 2026-05-08 16:53 | 22.31817 | 39.68929 | 17783 ft | 441 kts | 41° |
| 2026-05-08 16:53 | 22.34089 | 39.71180 | 18386 ft | 446 kts | 41° |
| 2026-05-08 16:53 | 22.36393 | 39.73466 | 18968 ft | 451 kts | 41° |
| 2026-05-08 16:54 | 22.38727 | 39.75779 | 19541 ft | 455 kts | 41° |
| 2026-05-08 16:54 | 22.41041 | 39.78075 | 20080 ft | 459 kts | 41° |
| 2026-05-08 16:54 | 22.43407 | 39.80426 | 20612 ft | 463 kts | 41° |
| 2026-05-08 16:54 | 22.45795 | 39.82795 | 21110 ft | 468 kts | 41° |
| 2026-05-08 16:55 | 22.48215 | 39.85176 | 21581 ft | 473 kts | 40° |
| 2026-05-08 16:55 | 22.50683 | 39.87543 | 22068 ft | 476 kts | 40° |
| 2026-05-08 16:55 | 22.53183 | 39.89912 | 22565 ft | 480 kts | 39° |
| 2026-05-08 16:55 | 22.55704 | 39.92297 | 23046 ft | 483 kts | 39° |
| 2026-05-08 16:56 | 22.58247 | 39.94709 | 23475 ft | 487 kts | 39° |
| 2026-05-08 16:56 | 22.60809 | 39.97146 | 23892 ft | 491 kts | 39° |
| 2026-05-08 16:56 | 22.63380 | 39.99599 | 24305 ft | 495 kts | 39° |
| 2026-05-08 16:56 | 22.65964 | 40.02069 | 24746 ft | 498 kts | 39° |
| 2026-05-08 16:57 | 22.68576 | 40.04567 | 25083 ft | 503 kts | 39° |
| 2026-05-08 16:57 | 22.71205 | 40.07083 | 25456 ft | 506 kts | 39° |
| 2026-05-08 16:57 | 22.73850 | 40.09618 | 25873 ft | 509 kts | 39° |
| 2026-05-08 16:57 | 22.76503 | 40.12162 | 26276 ft | 511 kts | 39° |
| 2026-05-08 16:58 | 22.79175 | 40.14724 | 26646 ft | 514 kts | 39° |
| 2026-05-08 16:58 | 22.81861 | 40.17302 | 27009 ft | 517 kts | 39° |
| 2026-05-08 16:58 | 22.84527 | 40.19862 | 27353 ft | 520 kts | 39° |
| 2026-05-08 16:58 | 22.87240 | 40.22467 | 27689 ft | 523 kts | 39° |
| 2026-05-08 16:59 | 22.89976 | 40.25096 | 27993 ft | 527 kts | 39° |
| 2026-05-08 16:59 | 22.92725 | 40.27739 | 28340 ft | 529 kts | 39° |
| 2026-05-08 16:59 | 22.95485 | 40.30393 | 28652 ft | 531 kts | 39° |
| 2026-05-08 16:59 | 22.98254 | 40.33059 | 28947 ft | 533 kts | 39° |
| 2026-05-08 17:00 | 23.01040 | 40.35742 | 29220 ft | 536 kts | 39° |
| 2026-05-08 17:00 | 23.03835 | 40.38435 | 29499 ft | 538 kts | 39° |
| 2026-05-08 17:00 | 23.06633 | 40.41134 | 29802 ft | 539 kts | 39° |
| 2026-05-08 17:00 | 23.09436 | 40.43839 | 30185 ft | 538 kts | 39° |
| 2026-05-08 17:01 | 23.12234 | 40.46540 | 30545 ft | 538 kts | 39° |
| 2026-05-08 17:01 | 23.15039 | 40.49252 | 30800 ft | 541 kts | 40° |
| 2026-05-08 17:01 | 23.17856 | 40.51972 | 31049 ft | 543 kts | 40° |
| 2026-05-08 17:01 | 23.20681 | 40.54704 | 31342 ft | 544 kts | 40° |
| 2026-05-08 17:02 | 23.23460 | 40.57424 | 31626 ft | 545 kts | 43° |
| 2026-05-08 17:02 | 23.26008 | 40.60474 | 31901 ft | 547 kts | 52° |
| 2026-05-08 17:02 | 23.28179 | 40.63880 | 32169 ft | 548 kts | 59° |
| 2026-05-08 17:02 | 23.29994 | 40.67518 | 32445 ft | 547 kts | 68° |
| 2026-05-08 17:03 | 23.31388 | 40.71362 | 32713 ft | 546 kts | 72° |
| 2026-05-08 17:03 | 23.32687 | 40.75244 | 32948 ft | 548 kts | 72° |
| 2026-05-08 17:03 | 23.35297 | 40.83088 | 33022 ft | 554 kts | 72° |
| 2026-05-08 17:04 | 23.37994 | 40.90975 | 33020 ft | 557 kts | 72° |
| 2026-05-08 17:04 | 23.40728 | 40.98859 | 33018 ft | 556 kts | 72° |
| 2026-05-08 17:05 | 23.43461 | 41.06741 | 33019 ft | 556 kts | 72° |
| 2026-05-08 17:05 | 23.46177 | 41.14615 | 33017 ft | 555 kts | 72° |
| 2026-05-08 17:06 | 23.48893 | 41.22506 | 33019 ft | 555 kts | 72° |
| 2026-05-08 17:06 | 23.51599 | 41.30382 | 33021 ft | 555 kts | 72° |
| 2026-05-08 17:07 | 23.54300 | 41.38260 | 33020 ft | 555 kts | 72° |
| 2026-05-08 17:07 | 23.56980 | 41.46091 | 33029 ft | 555 kts | 72° |
| 2026-05-08 17:08 | 23.59681 | 41.53999 | 33033 ft | 556 kts | 72° |
| 2026-05-08 17:08 | 23.62378 | 41.61910 | 33064 ft | 556 kts | 72° |
| 2026-05-08 17:09 | 23.65070 | 41.69824 | 33056 ft | 557 kts | 72° |
| 2026-05-08 17:09 | 23.67758 | 41.77766 | 33045 ft | 558 kts | 73° |
| 2026-05-08 17:10 | 23.70288 | 41.85764 | 33052 ft | 558 kts | 74° |
| 2026-05-08 17:10 | 23.72786 | 41.93785 | 33059 ft | 558 kts | 74° |
| 2026-05-08 17:11 | 23.75320 | 42.01754 | 33053 ft | 560 kts | 73° |
| 2026-05-08 17:11 | 23.78043 | 42.09730 | 33060 ft | 560 kts | 72° |
| 2026-05-08 17:12 | 23.80807 | 42.17691 | 33054 ft | 560 kts | 72° |
| 2026-05-08 17:12 | 23.83536 | 42.25650 | 33063 ft | 559 kts | 72° |
| 2026-05-08 17:13 | 23.86235 | 42.33603 | 33064 ft | 558 kts | 72° |
| 2026-05-08 17:13 | 23.88927 | 42.41559 | 33068 ft | 557 kts | 72° |
| 2026-05-08 17:14 | 23.91611 | 42.49501 | 33068 ft | 557 kts | 72° |
| 2026-05-08 17:14 | 23.94295 | 42.57435 | 33070 ft | 556 kts | 72° |
| 2026-05-08 17:15 | 23.96969 | 42.65371 | 33077 ft | 556 kts | 73° |
| 2026-05-08 17:15 | 23.99636 | 42.73301 | 33075 ft | 556 kts | 73° |
| 2026-05-08 17:16 | 24.02299 | 42.81235 | 33072 ft | 554 kts | 74° |
| 2026-05-08 17:16 | 24.03328 | 42.85266 | 33063 ft | 548 kts | 85° |
| 2026-05-08 17:16 | 24.03664 | 42.89325 | 33080 ft | 539 kts | 95° |
| 2026-05-08 17:17 | 24.02677 | 42.97297 | 33080 ft | 520 kts | 114° |
| 2026-05-08 17:17 | 24.00506 | 43.04842 | 33084 ft | 520 kts | 114° |
| 2026-05-08 17:18 | 23.98371 | 43.12427 | 33088 ft | 522 kts | 113° |
| 2026-05-08 17:18 | 23.96287 | 43.20048 | 33088 ft | 523 kts | 113° |
| 2026-05-08 17:19 | 23.94221 | 43.27671 | 33084 ft | 523 kts | 113° |
| 2026-05-08 17:19 | 23.92160 | 43.35245 | 33085 ft | 522 kts | 113° |
| 2026-05-08 17:20 | 23.90086 | 43.42835 | 33088 ft | 520 kts | 113° |
| 2026-05-08 17:20 | 23.88018 | 43.50397 | 33090 ft | 518 kts | 113° |
| 2026-05-08 17:21 | 23.85947 | 43.57934 | 33092 ft | 517 kts | 114° |
| 2026-05-08 17:21 | 23.83874 | 43.65461 | 33094 ft | 517 kts | 114° |
| 2026-05-08 17:22 | 23.81802 | 43.72977 | 33089 ft | 517 kts | 114° |
| 2026-05-08 17:22 | 23.79726 | 43.80495 | 33093 ft | 517 kts | 114° |
| 2026-05-08 17:23 | 23.77738 | 43.88041 | 33091 ft | 521 kts | 109° |
| 2026-05-08 17:23 | 23.76744 | 43.95954 | 33093 ft | 530 kts | 101° |
| 2026-05-08 17:24 | 23.76222 | 44.03994 | 33092 ft | 530 kts | 100° |
| 2026-05-08 17:24 | 23.75678 | 44.12024 | 33089 ft | 530 kts | 101° |
| 2026-05-08 17:25 | 23.75089 | 44.19986 | 33095 ft | 530 kts | 101° |
| 2026-05-08 17:25 | 23.74474 | 44.28005 | 33090 ft | 531 kts | 101° |
| 2026-05-08 17:26 | 23.73856 | 44.36035 | 33082 ft | 531 kts | 101° |
| 2026-05-08 17:26 | 23.73241 | 44.44063 | 33086 ft | 531 kts | 101° |
| 2026-05-08 17:27 | 23.72619 | 44.52093 | 33079 ft | 531 kts | 101° |
| 2026-05-08 17:27 | 23.71995 | 44.60131 | 33084 ft | 531 kts | 101° |
| 2026-05-08 17:28 | 23.71366 | 44.68155 | 33080 ft | 531 kts | 101° |
| 2026-05-08 17:28 | 23.70732 | 44.76187 | 33072 ft | 531 kts | 101° |
| 2026-05-08 17:29 | 23.70102 | 44.84154 | 33073 ft | 530 kts | 101° |
| 2026-05-08 17:29 | 23.69455 | 44.92169 | 33073 ft | 530 kts | 101° |
| 2026-05-08 17:30 | 23.68807 | 45.00185 | 33068 ft | 531 kts | 101° |
| 2026-05-08 17:30 | 23.68156 | 45.08211 | 33067 ft | 531 kts | 101° |
| 2026-05-08 17:31 | 23.67500 | 45.16243 | 33062 ft | 532 kts | 100° |
| 2026-05-08 17:31 | 23.66837 | 45.24290 | 33058 ft | 532 kts | 100° |
| 2026-05-08 17:32 | 23.66173 | 45.32332 | 33059 ft | 532 kts | 100° |
| 2026-05-08 17:32 | 23.65511 | 45.40326 | 33051 ft | 532 kts | 100° |
| 2026-05-08 17:33 | 23.64838 | 45.48383 | 33049 ft | 533 kts | 101° |
| 2026-05-08 17:33 | 23.64163 | 45.56432 | 33045 ft | 533 kts | 100° |
| 2026-05-08 17:34 | 23.63482 | 45.64487 | 33048 ft | 533 kts | 101° |
| 2026-05-08 17:34 | 23.62914 | 45.71181 | 33039 ft | 533 kts | 101° |
| 2026-05-08 17:35 | 23.62227 | 45.79229 | 33037 ft | 533 kts | 101° |
| 2026-05-08 17:35 | 23.61538 | 45.87281 | 33033 ft | 533 kts | 101° |
| 2026-05-08 17:36 | 23.60841 | 45.95328 | 33044 ft | 533 kts | 101° |
| 2026-05-08 17:36 | 23.60144 | 46.03379 | 33036 ft | 534 kts | 101° |
| 2026-05-08 17:37 | 23.59447 | 46.11389 | 33033 ft | 534 kts | 101° |
| 2026-05-08 17:37 | 23.58739 | 46.19438 | 33032 ft | 534 kts | 101° |
| 2026-05-08 17:38 | 23.58026 | 46.27502 | 33029 ft | 534 kts | 101° |
| 2026-05-08 17:38 | 23.57310 | 46.35561 | 32978 ft | 534 kts | 101° |
| 2026-05-08 17:39 | 23.56588 | 46.43609 | 32998 ft | 532 kts | 100° |
| 2026-05-08 17:39 | 23.55872 | 46.51630 | 32988 ft | 531 kts | 101° |
| 2026-05-08 17:40 | 23.55135 | 46.59636 | 32980 ft | 530 kts | 101° |
| 2026-05-08 17:40 | 23.54395 | 46.67629 | 32982 ft | 530 kts | 101° |
| 2026-05-08 17:41 | 23.53657 | 46.75638 | 32980 ft | 530 kts | 101° |
| 2026-05-08 17:41 | 23.52912 | 46.83635 | 32985 ft | 531 kts | 101° |
| 2026-05-08 17:42 | 23.52161 | 46.91633 | 32980 ft | 531 kts | 101° |
| 2026-05-08 17:42 | 23.51406 | 46.99637 | 32983 ft | 531 kts | 101° |
| 2026-05-08 17:43 | 23.50650 | 47.07643 | 32975 ft | 531 kts | 101° |
| 2026-05-08 17:43 | 23.49886 | 47.15646 | 32981 ft | 530 kts | 101° |
| 2026-05-08 17:44 | 23.49126 | 47.23583 | 32969 ft | 530 kts | 101° |
| 2026-05-08 17:44 | 23.48354 | 47.31585 | 32970 ft | 530 kts | 101° |
| 2026-05-08 17:45 | 23.47581 | 47.39573 | 32978 ft | 530 kts | 101° |
| 2026-05-08 17:45 | 23.46811 | 47.47512 | 32968 ft | 530 kts | 101° |
| 2026-05-08 17:46 | 23.46029 | 47.55508 | 32975 ft | 531 kts | 101° |
| 2026-05-08 17:46 | 23.45248 | 47.63505 | 32972 ft | 531 kts | 101° |
| 2026-05-08 17:47 | 23.44467 | 47.71508 | 32960 ft | 531 kts | 101° |
| 2026-05-08 17:47 | 23.43815 | 47.78147 | 32961 ft | 531 kts | 101° |
| 2026-05-08 17:48 | 23.42891 | 47.87485 | 32963 ft | 530 kts | 101° |
| 2026-05-08 17:48 | 23.42099 | 47.95464 | 32966 ft | 530 kts | 101° |
| 2026-05-08 17:49 | 23.41303 | 48.03437 | 32964 ft | 529 kts | 101° |
| 2026-05-08 17:49 | 23.40505 | 48.11399 | 32965 ft | 528 kts | 101° |
| 2026-05-08 17:50 | 23.39697 | 48.19363 | 32957 ft | 529 kts | 101° |
| 2026-05-08 17:50 | 23.38894 | 48.27268 | 32955 ft | 527 kts | 102° |
| 2026-05-08 17:51 | 23.37116 | 48.34901 | 32954 ft | 516 kts | 116° |
| 2026-05-08 17:51 | 23.33873 | 48.41764 | 32956 ft | 506 kts | 128° |
| 2026-05-08 17:52 | 23.30025 | 48.48172 | 32952 ft | 506 kts | 128° |
| 2026-05-08 17:53 | 23.24305 | 48.57820 | 32957 ft | 506 kts | 127° |
| 2026-05-08 17:53 | 23.20544 | 48.64230 | 32952 ft | 506 kts | 127° |
| 2026-05-08 17:54 | 23.16761 | 48.70680 | 32949 ft | 506 kts | 127° |
| 2026-05-08 17:54 | 23.12976 | 48.77120 | 32941 ft | 505 kts | 127° |
| 2026-05-08 17:55 | 23.09185 | 48.83556 | 32943 ft | 505 kts | 127° |
| 2026-05-08 17:55 | 23.05397 | 48.89982 | 32946 ft | 505 kts | 127° |
| 2026-05-08 17:56 | 23.01675 | 48.96458 | 32941 ft | 508 kts | 122° |
| 2026-05-08 17:56 | 22.98984 | 49.03614 | 32953 ft | 515 kts | 110° |
| 2026-05-08 17:57 | 22.97488 | 49.11203 | 32957 ft | 519 kts | 104° |
| 2026-05-08 17:57 | 22.96219 | 49.18961 | 32943 ft | 519 kts | 104° |
| 2026-05-08 17:58 | 22.94934 | 49.26635 | 32945 ft | 519 kts | 104° |
| 2026-05-08 17:58 | 22.93598 | 49.34347 | 32940 ft | 518 kts | 104° |
| 2026-05-08 17:59 | 22.92256 | 49.42000 | 32935 ft | 518 kts | 104° |
| 2026-05-08 17:59 | 22.90909 | 49.49648 | 32935 ft | 517 kts | 104° |
| 2026-05-08 18:00 | 22.89561 | 49.57289 | 32922 ft | 516 kts | 104° |
| 2026-05-08 18:00 | 22.87534 | 49.68751 | 32926 ft | 515 kts | 104° |
| 2026-05-08 18:01 | 22.86184 | 49.76367 | 32907 ft | 516 kts | 104° |
| 2026-05-08 18:01 | 22.84820 | 49.84034 | 32901 ft | 516 kts | 104° |
| 2026-05-08 18:02 | 22.83693 | 49.90350 | 32900 ft | 515 kts | 104° |
| 2026-05-08 18:02 | 22.82098 | 49.99252 | 32895 ft | 515 kts | 104° |
| 2026-05-08 18:03 | 22.80730 | 50.06887 | 32904 ft | 514 kts | 104° |
| 2026-05-08 18:03 | 22.79360 | 50.14495 | 32884 ft | 514 kts | 104° |
| 2026-05-08 18:04 | 22.77992 | 50.22069 | 32900 ft | 513 kts | 104° |
| 2026-05-08 18:04 | 22.76615 | 50.29673 | 32886 ft | 513 kts | 104° |
| 2026-05-08 18:05 | 22.75243 | 50.37233 | 32885 ft | 512 kts | 104° |
| 2026-05-08 18:05 | 22.73862 | 50.44822 | 32898 ft | 513 kts | 104° |
| 2026-05-08 18:06 | 22.72483 | 50.52378 | 32896 ft | 513 kts | 104° |
| 2026-05-08 18:06 | 22.71100 | 50.59938 | 32896 ft | 513 kts | 104° |
| 2026-05-08 18:07 | 22.69700 | 50.67553 | 32886 ft | 513 kts | 104° |
| 2026-05-08 18:07 | 22.68309 | 50.75111 | 32886 ft | 513 kts | 104° |
| 2026-05-08 18:08 | 22.66917 | 50.82655 | 32896 ft | 513 kts | 104° |
| 2026-05-08 18:08 | 22.65512 | 50.90244 | 32887 ft | 513 kts | 104° |
| 2026-05-08 18:09 | 22.64111 | 50.97795 | 32912 ft | 514 kts | 104° |
| 2026-05-08 18:09 | 22.62692 | 51.05415 | 32906 ft | 515 kts | 104° |
| 2026-05-08 18:10 | 22.61278 | 51.12994 | 32910 ft | 516 kts | 104° |
| 2026-05-08 18:10 | 22.59846 | 51.20651 | 32904 ft | 517 kts | 104° |
| 2026-05-08 18:11 | 22.58419 | 51.28262 | 32909 ft | 517 kts | 104° |
| 2026-05-08 18:11 | 22.56988 | 51.35865 | 32905 ft | 517 kts | 104° |
| 2026-05-08 18:12 | 22.55544 | 51.43514 | 32880 ft | 517 kts | 104° |
| 2026-05-08 18:12 | 22.54108 | 51.51113 | 32877 ft | 516 kts | 104° |
| 2026-05-08 18:13 | 22.52662 | 51.58737 | 32881 ft | 516 kts | 104° |
| 2026-05-08 18:13 | 22.51220 | 51.66315 | 32876 ft | 516 kts | 104° |
| 2026-05-08 18:14 | 22.49776 | 51.73898 | 32870 ft | 515 kts | 104° |
| 2026-05-08 18:14 | 22.48326 | 51.81478 | 32872 ft | 515 kts | 104° |
| 2026-05-08 18:15 | 22.46865 | 51.89100 | 32870 ft | 515 kts | 104° |
| 2026-05-08 18:15 | 22.45409 | 51.96664 | 32869 ft | 516 kts | 104° |
| 2026-05-08 18:16 | 22.43945 | 52.04229 | 32872 ft | 516 kts | 104° |
| 2026-05-08 18:16 | 22.42487 | 52.11797 | 32870 ft | 515 kts | 104° |
| 2026-05-08 18:17 | 22.41014 | 52.19420 | 32868 ft | 515 kts | 104° |
| 2026-05-08 18:17 | 22.39552 | 52.26961 | 32871 ft | 515 kts | 104° |
| 2026-05-08 18:18 | 22.38079 | 52.34507 | 32870 ft | 515 kts | 104° |
| 2026-05-08 18:18 | 22.36592 | 52.42112 | 32872 ft | 515 kts | 104° |
| 2026-05-08 18:19 | 22.35115 | 52.49667 | 32869 ft | 515 kts | 104° |
| 2026-05-08 18:19 | 22.33634 | 52.57208 | 32871 ft | 515 kts | 104° |
| 2026-05-08 18:20 | 22.32138 | 52.64801 | 32869 ft | 515 kts | 104° |
| 2026-05-08 18:20 | 22.30651 | 52.72337 | 32868 ft | 515 kts | 104° |
| 2026-05-08 18:21 | 22.29157 | 52.79897 | 32861 ft | 515 kts | 104° |
| 2026-05-08 18:21 | 22.27654 | 52.87492 | 32859 ft | 515 kts | 104° |
| 2026-05-08 18:22 | 22.26153 | 52.95034 | 32861 ft | 515 kts | 104° |
| 2026-05-08 18:22 | 22.24651 | 53.02573 | 32858 ft | 515 kts | 104° |
| 2026-05-08 18:23 | 22.23395 | 53.08862 | 32852 ft | 515 kts | 104° |
| 2026-05-08 18:23 | 22.21632 | 53.17665 | 32849 ft | 515 kts | 104° |
| 2026-05-08 18:24 | 22.20368 | 53.23954 | 32835 ft | 515 kts | 104° |
| 2026-05-08 18:24 | 22.18844 | 53.31528 | 32849 ft | 515 kts | 104° |
| 2026-05-08 18:25 | 22.17324 | 53.39061 | 32839 ft | 515 kts | 104° |
| 2026-05-08 18:25 | 22.15800 | 53.46593 | 32843 ft | 514 kts | 104° |
| 2026-05-08 18:26 | 22.14266 | 53.54161 | 32840 ft | 514 kts | 104° |
| 2026-05-08 18:26 | 22.12741 | 53.61669 | 32844 ft | 514 kts | 104° |
| 2026-05-08 18:27 | 22.11459 | 53.67964 | 32845 ft | 514 kts | 104° |
| 2026-05-08 18:27 | 22.09673 | 53.76706 | 32845 ft | 514 kts | 104° |
| 2026-05-08 18:28 | 22.08127 | 53.84263 | 32843 ft | 514 kts | 104° |
| 2026-05-08 18:28 | 22.06586 | 53.91770 | 32842 ft | 515 kts | 104° |
| 2026-05-08 18:29 | 22.05030 | 53.99326 | 32845 ft | 515 kts | 104° |
| 2026-05-08 18:29 | 22.03480 | 54.06844 | 32843 ft | 515 kts | 104° |
| 2026-05-08 18:30 | 22.01917 | 54.14400 | 32850 ft | 515 kts | 104° |
| 2026-05-08 18:30 | 22.00355 | 54.21932 | 32850 ft | 515 kts | 104° |
| 2026-05-08 18:31 | 21.98801 | 54.29417 | 32851 ft | 514 kts | 104° |
| 2026-05-08 18:31 | 21.97230 | 54.36962 | 32849 ft | 514 kts | 104° |
| 2026-05-08 18:32 | 21.95667 | 54.44448 | 32852 ft | 515 kts | 104° |
| 2026-05-08 18:32 | 21.94100 | 54.51940 | 32848 ft | 514 kts | 104° |
| 2026-05-08 18:33 | 21.92519 | 54.59475 | 32839 ft | 514 kts | 104° |
| 2026-05-08 18:33 | 21.90944 | 54.66968 | 32842 ft | 514 kts | 104° |
| 2026-05-08 18:34 | 21.89357 | 54.74483 | 32856 ft | 513 kts | 104° |
| 2026-05-08 18:34 | 21.87781 | 54.81950 | 32861 ft | 512 kts | 104° |
| 2026-05-08 18:35 | 21.86203 | 54.89403 | 32861 ft | 512 kts | 104° |
| 2026-05-08 18:35 | 21.84611 | 54.96902 | 32863 ft | 512 kts | 104° |
| 2026-05-08 18:36 | 21.83023 | 55.04366 | 32859 ft | 512 kts | 104° |
| 2026-05-08 18:36 | 21.81425 | 55.11862 | 32859 ft | 512 kts | 104° |
| 2026-05-08 18:37 | 21.79834 | 55.19308 | 32859 ft | 512 kts | 104° |
| 2026-05-08 18:37 | 21.78238 | 55.26758 | 32860 ft | 512 kts | 104° |
| 2026-05-08 18:38 | 21.76627 | 55.34258 | 32863 ft | 512 kts | 104° |
| 2026-05-08 18:38 | 21.75024 | 55.41704 | 32861 ft | 513 kts | 104° |
| 2026-05-08 18:39 | 21.73417 | 55.49153 | 32858 ft | 513 kts | 104° |
| 2026-05-08 18:39 | 21.71850 | 55.56677 | 32860 ft | 513 kts | 101° |
| 2026-05-08 18:40 | 21.71188 | 55.64302 | 32857 ft | 514 kts | 94° |
| 2026-05-08 18:40 | 21.70823 | 55.72007 | 32841 ft | 514 kts | 95° |
| 2026-05-08 18:41 | 21.70385 | 55.79656 | 32842 ft | 514 kts | 95° |
| 2026-05-08 18:41 | 21.69928 | 55.87294 | 32840 ft | 514 kts | 95° |
| 2026-05-08 18:42 | 21.69475 | 55.94953 | 32840 ft | 514 kts | 95° |
| 2026-05-08 18:42 | 21.69019 | 56.02640 | 32846 ft | 515 kts | 95° |
| 2026-05-08 18:43 | 21.68563 | 56.10308 | 32841 ft | 515 kts | 95° |
| 2026-05-08 18:43 | 21.68098 | 56.18014 | 32843 ft | 515 kts | 95° |
| 2026-05-08 18:44 | 21.67632 | 56.25681 | 32839 ft | 514 kts | 95° |
| 2026-05-08 18:44 | 21.67163 | 56.33338 | 32832 ft | 514 kts | 95° |
| 2026-05-08 18:45 | 21.66691 | 56.41028 | 32834 ft | 514 kts | 95° |
| 2026-05-08 18:45 | 21.66214 | 56.48673 | 32834 ft | 513 kts | 95° |
| 2026-05-08 18:46 | 21.65733 | 56.56307 | 32834 ft | 513 kts | 95° |
| 2026-05-08 18:46 | 21.65251 | 56.63950 | 32833 ft | 513 kts | 95° |
| 2026-05-08 18:47 | 21.64767 | 56.71611 | 32834 ft | 513 kts | 95° |
| 2026-05-08 18:47 | 21.64278 | 56.79243 | 32801 ft | 513 kts | 95° |
| 2026-05-08 18:48 | 21.63784 | 56.86889 | 32794 ft | 512 kts | 95° |
| 2026-05-08 18:48 | 21.63287 | 56.94517 | 32797 ft | 512 kts | 95° |
| 2026-05-08 18:49 | 21.62790 | 57.02130 | 32795 ft | 512 kts | 95° |
| 2026-05-08 18:49 | 21.62288 | 57.09781 | 32796 ft | 511 kts | 95° |
| 2026-05-08 18:50 | 21.61783 | 57.17380 | 32798 ft | 511 kts | 95° |
| 2026-05-08 18:50 | 21.61273 | 57.25004 | 32795 ft | 511 kts | 95° |
| 2026-05-08 18:51 | 21.60758 | 57.32637 | 32797 ft | 511 kts | 95° |
| 2026-05-08 18:51 | 21.60248 | 57.40197 | 32796 ft | 510 kts | 95° |
| 2026-05-08 18:52 | 21.59728 | 57.47842 | 32796 ft | 511 kts | 95° |
| 2026-05-08 18:52 | 21.59209 | 57.55411 | 32795 ft | 510 kts | 95° |
| 2026-05-08 18:53 | 21.58684 | 57.63007 | 32796 ft | 510 kts | 96° |
| 2026-05-08 18:53 | 21.57543 | 57.70540 | 32793 ft | 508 kts | 107° |
| 2026-05-08 18:54 | 21.55483 | 57.77752 | 32805 ft | 507 kts | 109° |
| 2026-05-08 18:54 | 21.53383 | 57.85001 | 32796 ft | 508 kts | 108° |
| 2026-05-08 18:55 | 21.50303 | 57.95869 | 32798 ft | 508 kts | 108° |
| 2026-05-08 18:56 | 21.48258 | 58.03117 | 32796 ft | 508 kts | 108° |
| 2026-05-08 18:56 | 21.46211 | 58.10362 | 32796 ft | 508 kts | 108° |
| 2026-05-08 18:57 | 21.44154 | 58.17622 | 32797 ft | 507 kts | 108° |
| 2026-05-08 18:57 | 21.42101 | 58.24855 | 32795 ft | 507 kts | 108° |
| 2026-05-08 18:58 | 21.40047 | 58.32073 | 32804 ft | 507 kts | 108° |
| 2026-05-08 18:58 | 21.37991 | 58.39288 | 32811 ft | 507 kts | 108° |
| 2026-05-08 18:59 | 21.35922 | 58.46545 | 32815 ft | 506 kts | 108° |
| 2026-05-08 18:59 | 21.33862 | 58.53741 | 32816 ft | 506 kts | 108° |
| 2026-05-08 19:00 | 21.32140 | 58.59757 | 32815 ft | 506 kts | 108° |
| 2026-05-08 19:00 | 21.29722 | 58.68192 | 32814 ft | 507 kts | 108° |
| 2026-05-08 19:01 | 21.27670 | 58.75387 | 32815 ft | 506 kts | 106° |
| 2026-05-08 19:01 | 21.26435 | 58.82805 | 32819 ft | 508 kts | 96° |
| 2026-05-08 19:02 | 21.26280 | 58.90404 | 32823 ft | 509 kts | 91° |
| 2026-05-08 19:02 | 21.26252 | 58.97980 | 32816 ft | 509 kts | 91° |
| 2026-05-08 19:03 | 21.26184 | 59.05560 | 32814 ft | 509 kts | 91° |
| 2026-05-08 19:03 | 21.26084 | 59.13132 | 32815 ft | 509 kts | 92° |
| 2026-05-08 19:04 | 21.25976 | 59.20739 | 32814 ft | 509 kts | 92° |
| 2026-05-08 19:04 | 21.25869 | 59.28304 | 32815 ft | 509 kts | 92° |
| 2026-05-08 19:05 | 21.25762 | 59.35867 | 32814 ft | 509 kts | 92° |
| 2026-05-08 19:05 | 21.25647 | 59.43475 | 32812 ft | 509 kts | 92° |
| 2026-05-08 19:06 | 21.25531 | 59.51028 | 32806 ft | 509 kts | 92° |
| 2026-05-08 19:06 | 21.25414 | 59.58595 | 32805 ft | 508 kts | 92° |
| 2026-05-08 19:07 | 21.25288 | 59.66190 | 32805 ft | 508 kts | 92° |
| 2026-05-08 19:07 | 21.25162 | 59.73737 | 32804 ft | 508 kts | 92° |
| 2026-05-08 19:08 | 21.25034 | 59.81338 | 32805 ft | 508 kts | 92° |
| 2026-05-08 19:08 | 21.24903 | 59.88925 | 32806 ft | 508 kts | 92° |
| 2026-05-08 19:09 | 21.24766 | 59.96485 | 32806 ft | 508 kts | 92° |
| 2026-05-08 19:09 | 21.24626 | 60.04034 | 32805 ft | 508 kts | 92° |
| 2026-05-08 19:10 | 21.24487 | 60.11592 | 32806 ft | 508 kts | 92° |
| 2026-05-08 19:10 | 21.24365 | 60.17903 | 32805 ft | 508 kts | 92° |
| 2026-05-08 19:11 | 21.24212 | 60.25455 | 32805 ft | 508 kts | 92° |
| 2026-05-08 19:11 | 21.24053 | 60.33058 | 32807 ft | 508 kts | 92° |
| 2026-05-08 19:12 | 21.23892 | 60.40605 | 32804 ft | 508 kts | 92° |
| 2026-05-08 19:12 | 21.23728 | 60.48193 | 32805 ft | 508 kts | 92° |
| 2026-05-08 19:13 | 21.23563 | 60.55735 | 32805 ft | 507 kts | 92° |
| 2026-05-08 19:13 | 21.23394 | 60.63273 | 32804 ft | 507 kts | 92° |
| 2026-05-08 19:14 | 21.23219 | 60.70861 | 32803 ft | 507 kts | 92° |
| 2026-05-08 19:14 | 21.23045 | 60.78380 | 32805 ft | 507 kts | 92° |
| 2026-05-08 19:15 | 21.22863 | 60.85963 | 32806 ft | 507 kts | 92° |
| 2026-05-08 19:15 | 21.22679 | 60.93486 | 32806 ft | 507 kts | 92° |
| 2026-05-08 19:16 | 21.22491 | 61.01029 | 32804 ft | 507 kts | 92° |
| 2026-05-08 19:16 | 21.22303 | 61.08578 | 32807 ft | 507 kts | 92° |
| 2026-05-08 19:17 | 21.22110 | 61.16156 | 32804 ft | 507 kts | 92° |
| 2026-05-08 19:17 | 21.21913 | 61.23694 | 32806 ft | 507 kts | 92° |
| 2026-05-08 19:18 | 21.21712 | 61.31241 | 32806 ft | 507 kts | 92° |
| 2026-05-08 19:18 | 21.21510 | 61.38767 | 32806 ft | 507 kts | 92° |
| 2026-05-08 19:19 | 21.21304 | 61.46304 | 32805 ft | 507 kts | 92° |
| 2026-05-08 19:19 | 21.21092 | 61.53855 | 32810 ft | 506 kts | 92° |
| 2026-05-08 19:20 | 21.20658 | 61.61405 | 32804 ft | 506 kts | 100° |
| 2026-05-08 19:20 | 21.18710 | 61.68606 | 32817 ft | 505 kts | 113° |
| 2026-05-08 19:21 | 21.15535 | 61.75289 | 32818 ft | 504 kts | 118° |
| 2026-05-08 19:21 | 21.12210 | 61.81932 | 32815 ft | 505 kts | 118° |
| 2026-05-08 19:22 | 21.08931 | 61.88561 | 32815 ft | 505 kts | 118° |
| 2026-05-08 19:22 | 21.05684 | 61.95197 | 32814 ft | 505 kts | 118° |
| 2026-05-08 19:23 | 21.02414 | 62.01894 | 32815 ft | 505 kts | 118° |
| 2026-05-08 19:23 | 20.99170 | 62.08532 | 32814 ft | 505 kts | 118° |
| 2026-05-08 19:24 | 20.95915 | 62.15173 | 32814 ft | 505 kts | 118° |
| 2026-05-08 19:24 | 20.92644 | 62.21841 | 32815 ft | 504 kts | 118° |
| 2026-05-08 19:25 | 20.89392 | 62.28466 | 32814 ft | 504 kts | 118° |
| 2026-05-08 19:25 | 20.86115 | 62.35126 | 32815 ft | 504 kts | 118° |
| 2026-05-08 19:26 | 20.82861 | 62.41742 | 32813 ft | 504 kts | 118° |
| 2026-05-08 19:26 | 20.79601 | 62.48353 | 32812 ft | 504 kts | 118° |
| 2026-05-08 19:27 | 20.76314 | 62.55012 | 32814 ft | 504 kts | 118° |
| 2026-05-08 19:27 | 20.73050 | 62.61611 | 32813 ft | 504 kts | 118° |
| 2026-05-08 19:28 | 20.69782 | 62.68218 | 32815 ft | 504 kts | 118° |
| 2026-05-08 19:28 | 20.66491 | 62.74867 | 32815 ft | 504 kts | 118° |
| 2026-05-08 19:29 | 20.63211 | 62.81476 | 32826 ft | 504 kts | 118° |
| 2026-05-08 19:29 | 20.59941 | 62.88064 | 32823 ft | 504 kts | 118° |
| 2026-05-08 19:30 | 20.56639 | 62.94710 | 32823 ft | 504 kts | 118° |
| 2026-05-08 19:30 | 20.53357 | 63.01305 | 32823 ft | 504 kts | 118° |
| 2026-05-08 19:31 | 20.50075 | 63.07890 | 32824 ft | 505 kts | 118° |
| 2026-05-08 19:31 | 20.46770 | 63.14514 | 32824 ft | 505 kts | 118° |
| 2026-05-08 19:32 | 20.43476 | 63.21112 | 32824 ft | 505 kts | 118° |
| 2026-05-08 19:32 | 20.40183 | 63.27700 | 32824 ft | 504 kts | 118° |
| 2026-05-08 19:33 | 20.36864 | 63.34328 | 32824 ft | 505 kts | 118° |
| 2026-05-08 19:33 | 20.33570 | 63.40897 | 32824 ft | 505 kts | 118° |
| 2026-05-08 19:34 | 20.30271 | 63.47470 | 32824 ft | 505 kts | 118° |
| 2026-05-08 19:34 | 20.26946 | 63.54088 | 32824 ft | 505 kts | 118° |
| 2026-05-08 19:35 | 20.23641 | 63.60659 | 32823 ft | 505 kts | 118° |
| 2026-05-08 19:35 | 20.20330 | 63.67229 | 32824 ft | 504 kts | 118° |
| 2026-05-08 19:36 | 20.17001 | 63.73839 | 32822 ft | 504 kts | 118° |
| 2026-05-08 19:36 | 20.13686 | 63.80403 | 32824 ft | 504 kts | 118° |
| 2026-05-08 19:37 | 20.10363 | 63.86974 | 32826 ft | 505 kts | 118° |
| 2026-05-08 19:37 | 20.07038 | 63.93545 | 32824 ft | 506 kts | 118° |
| 2026-05-08 19:38 | 20.03714 | 64.00109 | 32825 ft | 507 kts | 118° |
| 2026-05-08 19:38 | 20.00356 | 64.06734 | 32832 ft | 506 kts | 118° |
| 2026-05-08 19:39 | 19.97016 | 64.13311 | 32832 ft | 506 kts | 118° |
| 2026-05-08 19:39 | 19.93672 | 64.19886 | 32833 ft | 506 kts | 118° |
| 2026-05-08 19:40 | 19.90333 | 64.26454 | 32833 ft | 506 kts | 118° |
| 2026-05-08 19:40 | 19.86989 | 64.33017 | 32834 ft | 506 kts | 118° |
| 2026-05-08 19:41 | 19.83627 | 64.39610 | 32832 ft | 505 kts | 118° |
| 2026-05-08 19:41 | 19.80287 | 64.46146 | 32830 ft | 506 kts | 118° |
| 2026-05-08 19:42 | 19.76926 | 64.52725 | 32834 ft | 505 kts | 118° |
| 2026-05-08 19:42 | 19.73581 | 64.59264 | 32832 ft | 505 kts | 118° |
| 2026-05-08 19:43 | 19.70239 | 64.65785 | 32833 ft | 505 kts | 118° |
| 2026-05-08 19:43 | 19.66873 | 64.72344 | 32833 ft | 505 kts | 118° |
| 2026-05-08 19:44 | 19.63523 | 64.78869 | 32834 ft | 505 kts | 118° |
| 2026-05-08 19:44 | 19.60149 | 64.85434 | 32857 ft | 504 kts | 118° |
| 2026-05-08 19:45 | 19.56809 | 64.91927 | 32860 ft | 504 kts | 118° |
| 2026-05-08 19:45 | 19.53442 | 64.98464 | 32861 ft | 504 kts | 118° |
| 2026-05-08 19:46 | 19.50111 | 65.04991 | 32861 ft | 504 kts | 118° |
| 2026-05-08 19:46 | 19.45167 | 65.14868 | 32860 ft | 504 kts | 117° |
| 2026-05-08 19:47 | 19.41884 | 65.21416 | 32865 ft | 504 kts | 117° |
| 2026-05-08 19:47 | 19.38595 | 65.27956 | 32862 ft | 505 kts | 117° |
| 2026-05-08 19:48 | 19.35271 | 65.34549 | 32861 ft | 505 kts | 118° |
| 2026-05-08 19:48 | 19.31965 | 65.41097 | 32856 ft | 505 kts | 118° |
| 2026-05-08 19:49 | 19.28653 | 65.47651 | 32851 ft | 505 kts | 117° |
| 2026-05-08 19:49 | 19.25346 | 65.54189 | 32853 ft | 505 kts | 118° |
| 2026-05-08 19:50 | 19.22011 | 65.60773 | 32856 ft | 505 kts | 117° |
| 2026-05-08 19:50 | 19.18702 | 65.67304 | 32863 ft | 505 kts | 118° |
| 2026-05-08 19:51 | 19.15385 | 65.73840 | 32858 ft | 505 kts | 118° |
| 2026-05-08 19:51 | 19.12063 | 65.80378 | 32860 ft | 505 kts | 118° |
| 2026-05-08 19:52 | 19.08738 | 65.86915 | 32862 ft | 505 kts | 118° |
| 2026-05-08 19:52 | 19.05417 | 65.93438 | 32863 ft | 505 kts | 118° |
| 2026-05-08 19:53 | 19.02082 | 65.99982 | 32861 ft | 505 kts | 118° |
| 2026-05-08 19:53 | 18.98755 | 66.06500 | 32861 ft | 505 kts | 118° |
| 2026-05-08 19:54 | 18.95425 | 66.13020 | 32862 ft | 506 kts | 118° |
| 2026-05-08 19:54 | 18.92090 | 66.19540 | 32866 ft | 506 kts | 118° |
| 2026-05-08 19:55 | 18.88733 | 66.26099 | 32871 ft | 506 kts | 118° |
| 2026-05-08 19:55 | 18.85373 | 66.32654 | 32869 ft | 507 kts | 118° |
| 2026-05-08 19:56 | 18.82025 | 66.39180 | 32871 ft | 507 kts | 118° |
| 2026-05-08 19:56 | 18.78676 | 66.45707 | 32870 ft | 507 kts | 118° |
| 2026-05-08 19:57 | 18.75323 | 66.52228 | 32870 ft | 507 kts | 118° |
| 2026-05-08 19:57 | 18.71947 | 66.58784 | 32868 ft | 506 kts | 118° |
| 2026-05-08 19:58 | 18.68596 | 66.65290 | 32871 ft | 506 kts | 118° |
| 2026-05-08 19:58 | 18.65243 | 66.71791 | 32871 ft | 506 kts | 118° |
| 2026-05-08 19:59 | 18.61861 | 66.78341 | 32870 ft | 506 kts | 118° |
| 2026-05-08 19:59 | 18.58498 | 66.84846 | 32873 ft | 507 kts | 118° |
| 2026-05-08 20:00 | 18.55133 | 66.91346 | 32870 ft | 506 kts | 118° |
| 2026-05-08 20:00 | 18.51773 | 66.97835 | 32870 ft | 505 kts | 118° |
| 2026-05-08 20:01 | 18.48964 | 67.03253 | 32871 ft | 505 kts | 118° |
| 2026-05-08 20:01 | 18.45581 | 67.09774 | 32871 ft | 505 kts | 118° |
| 2026-05-08 20:02 | 18.42216 | 67.16249 | 32871 ft | 505 kts | 118° |
| 2026-05-08 20:02 | 18.38850 | 67.22719 | 32869 ft | 505 kts | 118° |
| 2026-05-08 20:03 | 18.35458 | 67.29236 | 32871 ft | 505 kts | 118° |
| 2026-05-08 20:03 | 18.32088 | 67.35703 | 32867 ft | 505 kts | 118° |
| 2026-05-08 20:04 | 18.28716 | 67.42163 | 32864 ft | 505 kts | 118° |
| 2026-05-08 20:04 | 18.25321 | 67.48668 | 32860 ft | 505 kts | 118° |
| 2026-05-08 20:05 | 18.21944 | 67.55131 | 32852 ft | 505 kts | 118° |
| 2026-05-08 20:05 | 18.18563 | 67.61592 | 32848 ft | 506 kts | 118° |
| 2026-05-08 20:06 | 18.15158 | 67.68092 | 32843 ft | 505 kts | 118° |
| 2026-05-08 20:06 | 18.11768 | 67.74553 | 32846 ft | 505 kts | 118° |
| 2026-05-08 20:07 | 18.08389 | 67.80994 | 32840 ft | 505 kts | 118° |
| 2026-05-08 20:07 | 18.05042 | 67.87472 | 32843 ft | 504 kts | 117° |
| 2026-05-08 20:08 | 18.01752 | 67.94010 | 32844 ft | 504 kts | 117° |
| 2026-05-08 20:08 | 17.98476 | 68.00518 | 32843 ft | 504 kts | 117° |
| 2026-05-08 20:09 | 17.95196 | 68.07007 | 32846 ft | 505 kts | 117° |
| 2026-05-08 20:09 | 17.91878 | 68.13545 | 32842 ft | 505 kts | 117° |
| 2026-05-08 20:10 | 17.88581 | 68.20041 | 32845 ft | 505 kts | 117° |
| 2026-05-08 20:10 | 17.85263 | 68.26571 | 32840 ft | 505 kts | 117° |
| 2026-05-08 20:11 | 17.81958 | 68.33059 | 32840 ft | 505 kts | 117° |
| 2026-05-08 20:11 | 17.78659 | 68.39540 | 32841 ft | 505 kts | 117° |
| 2026-05-08 20:12 | 17.75331 | 68.46068 | 32844 ft | 505 kts | 117° |
| 2026-05-08 20:12 | 17.72026 | 68.52542 | 32842 ft | 505 kts | 117° |
| 2026-05-08 20:13 | 17.68702 | 68.59048 | 32845 ft | 505 kts | 117° |
| 2026-05-08 20:13 | 17.65392 | 68.65521 | 32845 ft | 505 kts | 118° |
| 2026-05-08 20:14 | 17.62080 | 68.71991 | 32845 ft | 505 kts | 117° |
| 2026-05-08 20:14 | 17.58748 | 68.78497 | 32844 ft | 505 kts | 118° |
| 2026-05-08 20:15 | 17.55428 | 68.84967 | 32832 ft | 505 kts | 118° |
| 2026-05-08 20:15 | 17.52110 | 68.91432 | 32834 ft | 505 kts | 118° |
| 2026-05-08 20:16 | 17.48767 | 68.97935 | 32833 ft | 505 kts | 118° |
| 2026-05-08 20:16 | 17.45448 | 69.04387 | 32834 ft | 505 kts | 118° |
| 2026-05-08 20:17 | 17.42115 | 69.10858 | 32836 ft | 505 kts | 118° |
| 2026-05-08 20:17 | 17.38767 | 69.17349 | 32834 ft | 505 kts | 118° |
| 2026-05-08 20:18 | 17.35435 | 69.23811 | 32833 ft | 506 kts | 118° |
| 2026-05-08 20:18 | 17.32101 | 69.30263 | 32833 ft | 506 kts | 118° |
| 2026-05-08 20:19 | 17.28739 | 69.36766 | 32833 ft | 506 kts | 118° |
| 2026-05-08 20:19 | 17.25394 | 69.43236 | 32832 ft | 506 kts | 118° |
| 2026-05-08 20:20 | 17.22039 | 69.49711 | 32833 ft | 506 kts | 118° |
| 2026-05-08 20:20 | 17.18689 | 69.56175 | 32833 ft | 506 kts | 118° |
| 2026-05-08 20:21 | 17.15352 | 69.62636 | 32834 ft | 506 kts | 118° |
| 2026-05-08 20:21 | 17.12016 | 69.69113 | 32834 ft | 506 kts | 118° |
| 2026-05-08 20:22 | 17.08685 | 69.75574 | 32833 ft | 506 kts | 118° |
| 2026-05-08 20:22 | 17.05334 | 69.82060 | 32833 ft | 506 kts | 118° |
| 2026-05-08 20:23 | 17.01988 | 69.88525 | 32834 ft | 506 kts | 118° |
| 2026-05-08 20:23 | 16.98649 | 69.94971 | 32833 ft | 506 kts | 118° |
| 2026-05-08 20:24 | 16.95313 | 70.01408 | 32834 ft | 506 kts | 118° |
| 2026-05-08 20:24 | 16.91942 | 70.07909 | 32834 ft | 507 kts | 118° |
| 2026-05-08 20:25 | 16.88580 | 70.14383 | 32834 ft | 508 kts | 118° |
| 2026-05-08 20:25 | 16.85213 | 70.20862 | 32833 ft | 508 kts | 118° |
| 2026-05-08 20:26 | 16.81862 | 70.27307 | 32831 ft | 508 kts | 118° |
| 2026-05-08 20:26 | 16.78490 | 70.33779 | 32834 ft | 508 kts | 118° |
| 2026-05-08 20:27 | 16.75110 | 70.40262 | 32834 ft | 508 kts | 118° |
| 2026-05-08 20:27 | 16.71730 | 70.46737 | 32833 ft | 509 kts | 118° |
| 2026-05-08 20:28 | 16.68342 | 70.53228 | 32833 ft | 509 kts | 118° |
| 2026-05-08 20:28 | 16.64959 | 70.59705 | 32834 ft | 509 kts | 118° |
| 2026-05-08 20:29 | 16.61572 | 70.66176 | 32832 ft | 508 kts | 118° |
| 2026-05-08 20:29 | 16.58185 | 70.72643 | 32831 ft | 508 kts | 119° |
| 2026-05-08 20:30 | 16.54795 | 70.79114 | 32834 ft | 508 kts | 119° |
| 2026-05-08 20:30 | 16.51403 | 70.85586 | 32834 ft | 509 kts | 118° |
| 2026-05-08 20:31 | 16.48036 | 70.92081 | 32831 ft | 509 kts | 118° |
| 2026-05-08 20:31 | 16.44694 | 70.98536 | 32832 ft | 510 kts | 118° |
| 2026-05-08 20:32 | 16.41327 | 71.05025 | 32873 ft | 509 kts | 118° |
| 2026-05-08 20:32 | 16.37956 | 71.11514 | 32881 ft | 510 kts | 118° |
| 2026-05-08 20:33 | 16.34573 | 71.18020 | 32878 ft | 511 kts | 118° |
| 2026-05-08 20:33 | 16.31186 | 71.24524 | 32881 ft | 511 kts | 118° |
| 2026-05-08 20:34 | 16.27790 | 71.31035 | 32878 ft | 512 kts | 118° |
| 2026-05-08 20:35 | 16.22699 | 71.40801 | 32880 ft | 512 kts | 118° |
| 2026-05-08 20:35 | 16.19299 | 71.47312 | 32879 ft | 512 kts | 118° |
| 2026-05-08 20:36 | 16.15898 | 71.53816 | 32878 ft | 511 kts | 119° |
| 2026-05-08 20:36 | 16.12517 | 71.60283 | 32882 ft | 512 kts | 119° |
| 2026-05-08 20:37 | 16.09119 | 71.66785 | 32880 ft | 512 kts | 118° |
| 2026-05-08 20:37 | 16.05784 | 71.73324 | 32878 ft | 511 kts | 118° |
| 2026-05-08 20:38 | 16.02475 | 71.79875 | 32880 ft | 512 kts | 118° |
| 2026-05-08 20:38 | 15.99156 | 71.86429 | 32880 ft | 512 kts | 118° |
| 2026-05-08 20:39 | 15.95825 | 71.92972 | 32874 ft | 512 kts | 118° |
| 2026-05-08 20:39 | 15.92488 | 71.99511 | 32869 ft | 512 kts | 118° |
| 2026-05-08 20:40 | 15.89156 | 72.06049 | 32871 ft | 512 kts | 118° |
| 2026-05-08 20:40 | 15.85815 | 72.12597 | 32871 ft | 512 kts | 118° |
| 2026-05-08 20:41 | 15.82474 | 72.19133 | 32869 ft | 512 kts | 118° |
| 2026-05-08 20:41 | 15.79150 | 72.25628 | 32873 ft | 512 kts | 118° |
| 2026-05-08 20:42 | 15.75805 | 72.32159 | 32871 ft | 512 kts | 118° |
| 2026-05-08 20:42 | 15.72463 | 72.38685 | 32863 ft | 512 kts | 118° |
| 2026-05-08 20:43 | 15.69115 | 72.45215 | 32818 ft | 512 kts | 118° |
| 2026-05-08 20:43 | 15.65771 | 72.51730 | 32812 ft | 511 kts | 118° |
| 2026-05-08 20:44 | 15.62424 | 72.58240 | 32814 ft | 511 kts | 118° |
| 2026-05-08 20:44 | 15.59086 | 72.64738 | 32813 ft | 511 kts | 118° |
| 2026-05-08 20:45 | 15.55741 | 72.71237 | 32814 ft | 510 kts | 118° |
| 2026-05-08 20:45 | 15.52391 | 72.77731 | 32816 ft | 511 kts | 118° |
| 2026-05-08 20:46 | 15.49043 | 72.84221 | 32815 ft | 511 kts | 118° |
| 2026-05-08 20:46 | 15.45696 | 72.90712 | 32814 ft | 510 kts | 118° |
| 2026-05-08 20:47 | 15.42346 | 72.97195 | 32814 ft | 511 kts | 118° |
| 2026-05-08 20:47 | 15.38989 | 73.03685 | 32815 ft | 511 kts | 118° |
| 2026-05-08 20:48 | 15.35630 | 73.10176 | 32817 ft | 511 kts | 118° |
| 2026-05-08 20:48 | 15.32293 | 73.16620 | 32805 ft | 511 kts | 118° |
| 2026-05-08 20:49 | 15.28935 | 73.23102 | 32803 ft | 510 kts | 118° |
| 2026-05-08 20:49 | 15.26119 | 73.28527 | 32806 ft | 510 kts | 118° |
| 2026-05-08 20:50 | 15.22784 | 73.34950 | 32804 ft | 510 kts | 118° |
| 2026-05-08 20:50 | 15.19426 | 73.41411 | 32808 ft | 509 kts | 118° |
| 2026-05-08 20:51 | 15.16063 | 73.47877 | 32805 ft | 509 kts | 118° |
| 2026-05-08 20:51 | 15.12704 | 73.54331 | 32806 ft | 509 kts | 118° |
| 2026-05-08 20:52 | 15.09341 | 73.60786 | 32804 ft | 509 kts | 118° |
| 2026-05-08 20:52 | 15.05979 | 73.67236 | 32806 ft | 509 kts | 118° |
| 2026-05-08 20:53 | 15.02611 | 73.73690 | 32806 ft | 510 kts | 119° |
| 2026-05-08 20:53 | 14.99263 | 73.80098 | 32805 ft | 510 kts | 118° |
| 2026-05-08 20:54 | 14.95909 | 73.86547 | 32804 ft | 509 kts | 118° |
| 2026-05-08 20:54 | 14.92556 | 73.92994 | 32815 ft | 509 kts | 118° |
| 2026-05-08 20:55 | 14.89194 | 73.99433 | 32828 ft | 508 kts | 119° |
| 2026-05-08 20:55 | 14.85820 | 74.05851 | 32834 ft | 508 kts | 119° |
| 2026-05-08 20:56 | 14.82443 | 74.12275 | 32831 ft | 509 kts | 119° |
| 2026-05-08 20:56 | 14.79058 | 74.18710 | 32844 ft | 509 kts | 119° |
| 2026-05-08 20:57 | 14.75671 | 74.25147 | 32842 ft | 510 kts | 119° |
| 2026-05-08 20:57 | 14.72281 | 74.31586 | 32848 ft | 509 kts | 119° |
| 2026-05-08 20:58 | 14.68894 | 74.38009 | 32856 ft | 509 kts | 119° |
| 2026-05-08 20:58 | 14.65509 | 74.44428 | 32861 ft | 509 kts | 119° |
| 2026-05-08 20:59 | 14.62140 | 74.50808 | 32862 ft | 509 kts | 119° |
| 2026-05-08 20:59 | 14.58752 | 74.57219 | 32874 ft | 508 kts | 119° |
| 2026-05-08 21:00 | 14.55367 | 74.63625 | 32869 ft | 508 kts | 119° |
| 2026-05-08 21:00 | 14.51976 | 74.70031 | 32879 ft | 508 kts | 119° |
| 2026-05-08 21:01 | 14.48590 | 74.76428 | 32878 ft | 508 kts | 119° |
| 2026-05-08 21:01 | 14.45241 | 74.82855 | 32881 ft | 508 kts | 118° |
| 2026-05-08 21:02 | 14.41934 | 74.89288 | 32878 ft | 508 kts | 118° |
| 2026-05-08 21:02 | 14.38612 | 74.95742 | 32878 ft | 508 kts | 118° |
| 2026-05-08 21:03 | 14.35313 | 75.02125 | 32882 ft | 508 kts | 119° |
| 2026-05-08 21:03 | 14.31989 | 75.08545 | 32904 ft | 507 kts | 119° |
| 2026-05-08 21:04 | 14.28664 | 75.14967 | 32900 ft | 508 kts | 119° |
| 2026-05-08 21:04 | 14.25329 | 75.21399 | 32890 ft | 508 kts | 119° |
| 2026-05-08 21:05 | 14.21996 | 75.27822 | 32885 ft | 508 kts | 119° |
| 2026-05-08 21:05 | 14.18660 | 75.34246 | 32879 ft | 508 kts | 119° |
| 2026-05-08 21:06 | 14.15323 | 75.40672 | 32880 ft | 508 kts | 119° |
| 2026-05-08 21:06 | 14.11988 | 75.47087 | 32879 ft | 507 kts | 119° |
| 2026-05-08 21:07 | 14.08684 | 75.53436 | 32877 ft | 506 kts | 119° |
| 2026-05-08 21:07 | 14.05337 | 75.59833 | 32887 ft | 506 kts | 119° |
| 2026-05-08 21:08 | 14.01990 | 75.66202 | 32902 ft | 505 kts | 119° |
| 2026-05-08 21:08 | 13.98650 | 75.72566 | 32901 ft | 505 kts | 120° |
| 2026-05-08 21:09 | 13.95313 | 75.78921 | 32640 ft | 505 kts | 119° |
| 2026-05-08 21:09 | 13.93625 | 75.82134 | 31871 ft | 509 kts | 119° |
| 2026-05-08 21:09 | 13.91955 | 75.85313 | 31299 ft | 503 kts | 119° |
| 2026-05-08 21:09 | 13.90297 | 75.88468 | 30710 ft | 498 kts | 119° |
| 2026-05-08 21:10 | 13.88656 | 75.91589 | 30137 ft | 494 kts | 119° |
| 2026-05-08 21:10 | 13.87023 | 75.94691 | 29553 ft | 490 kts | 119° |
| 2026-05-08 21:10 | 13.85409 | 75.97757 | 28993 ft | 486 kts | 118° |
| 2026-05-08 21:10 | 13.83802 | 76.00808 | 28404 ft | 483 kts | 118° |
| 2026-05-08 21:11 | 13.82230 | 76.03794 | 27843 ft | 479 kts | 118° |
| 2026-05-08 21:11 | 13.80647 | 76.06799 | 27270 ft | 476 kts | 118° |
| 2026-05-08 21:11 | 13.79075 | 76.09781 | 26707 ft | 473 kts | 118° |
| 2026-05-08 21:11 | 13.77513 | 76.12743 | 26149 ft | 469 kts | 117° |
| 2026-05-08 21:12 | 13.75963 | 76.15682 | 25593 ft | 466 kts | 117° |
| 2026-05-08 21:12 | 13.74422 | 76.18607 | 25041 ft | 463 kts | 117° |
| 2026-05-08 21:12 | 13.72894 | 76.21503 | 24505 ft | 460 kts | 117° |
| 2026-05-08 21:12 | 13.71375 | 76.24389 | 23942 ft | 456 kts | 116° |
| 2026-05-08 21:13 | 13.69866 | 76.27252 | 23412 ft | 453 kts | 116° |
| 2026-05-08 21:13 | 13.68371 | 76.30086 | 22873 ft | 450 kts | 117° |
| 2026-05-08 21:13 | 13.66888 | 76.32899 | 22347 ft | 446 kts | 117° |
| 2026-05-08 21:13 | 13.65412 | 76.35692 | 21821 ft | 445 kts | 117° |
| 2026-05-08 21:14 | 13.63934 | 76.38487 | 21299 ft | 443 kts | 117° |
| 2026-05-08 21:14 | 13.62472 | 76.41260 | 20762 ft | 439 kts | 117° |
| 2026-05-08 21:14 | 13.61021 | 76.44007 | 20248 ft | 436 kts | 117° |
| 2026-05-08 21:14 | 13.59577 | 76.46741 | 19715 ft | 433 kts | 117° |
| 2026-05-08 21:15 | 13.58147 | 76.49448 | 19203 ft | 430 kts | 118° |
| 2026-05-08 21:15 | 13.56723 | 76.52140 | 18676 ft | 427 kts | 118° |
| 2026-05-08 21:15 | 13.55313 | 76.54806 | 18170 ft | 424 kts | 118° |
| 2026-05-08 21:15 | 13.53912 | 76.57455 | 17652 ft | 421 kts | 118° |
| 2026-05-08 21:16 | 13.52518 | 76.60090 | 17154 ft | 418 kts | 118° |
| 2026-05-08 21:16 | 13.51135 | 76.62702 | 16640 ft | 415 kts | 118° |
| 2026-05-08 21:16 | 13.49760 | 76.65299 | 16132 ft | 412 kts | 118° |
| 2026-05-08 21:16 | 13.48395 | 76.67876 | 15628 ft | 409 kts | 117° |
| 2026-05-08 21:17 | 13.47041 | 76.70437 | 15114 ft | 406 kts | 117° |
| 2026-05-08 21:17 | 13.45857 | 76.73042 | 14734 ft | 399 kts | 109° |
| 2026-05-08 21:17 | 13.44935 | 76.75696 | 14445 ft | 389 kts | 108° |
| 2026-05-08 21:17 | 13.44053 | 76.78252 | 14158 ft | 380 kts | 108° |
| 2026-05-08 21:18 | 13.43169 | 76.80791 | 13881 ft | 374 kts | 108° |
| 2026-05-08 21:18 | 13.42299 | 76.83287 | 13616 ft | 370 kts | 108° |
| 2026-05-08 21:18 | 13.41428 | 76.85768 | 13343 ft | 367 kts | 108° |
| 2026-05-08 21:18 | 13.40563 | 76.88229 | 13072 ft | 365 kts | 108° |
| 2026-05-08 21:19 | 13.39704 | 76.90671 | 12806 ft | 362 kts | 108° |
| 2026-05-08 21:19 | 13.38851 | 76.93095 | 12548 ft | 359 kts | 108° |
| 2026-05-08 21:19 | 13.38006 | 76.95503 | 12281 ft | 357 kts | 108° |
| 2026-05-08 21:19 | 13.37166 | 76.97886 | 12098 ft | 351 kts | 108° |
| 2026-05-08 21:20 | 13.36342 | 77.00219 | 11860 ft | 346 kts | 108° |
| 2026-05-08 21:20 | 13.35520 | 77.02552 | 11561 ft | 347 kts | 108° |
| 2026-05-08 21:20 | 13.34719 | 77.04815 | 11253 ft | 328 kts | 108° |
| 2026-05-08 21:20 | 13.33963 | 77.06945 | 10987 ft | 308 kts | 108° |
| 2026-05-08 21:21 | 13.33253 | 77.08950 | 10760 ft | 289 kts | 108° |
| 2026-05-08 21:21 | 13.32587 | 77.10835 | 10550 ft | 273 kts | 108° |
| 2026-05-08 21:21 | 13.31949 | 77.12645 | 10080 ft | 269 kts | 108° |
| 2026-05-08 21:21 | 13.31308 | 77.14468 | 9496 ft | 274 kts | 108° |
| 2026-05-08 21:22 | 13.30657 | 77.16318 | 9050 ft | 276 kts | 108° |
| 2026-05-08 21:22 | 13.30008 | 77.18152 | 8615 ft | 279 kts | 108° |
| 2026-05-08 21:22 | 13.29369 | 77.19960 | 8468 ft | 275 kts | 108° |
| 2026-05-08 21:22 | 13.28716 | 77.21807 | 8468 ft | 278 kts | 108° |
| 2026-05-08 21:23 | 13.28058 | 77.23676 | 8463 ft | 277 kts | 108° |
| 2026-05-08 21:23 | 13.27405 | 77.25515 | 8445 ft | 271 kts | 108° |
| 2026-05-08 21:23 | 13.26762 | 77.27326 | 8439 ft | 269 kts | 108° |
| 2026-05-08 21:23 | 13.26125 | 77.29124 | 8445 ft | 268 kts | 108° |
| 2026-05-08 21:24 | 13.25486 | 77.30934 | 8386 ft | 271 kts | 108° |
| 2026-05-08 21:24 | 13.24842 | 77.32752 | 8189 ft | 272 kts | 109° |
| 2026-05-08 21:24 | 13.24198 | 77.34564 | 7996 ft | 266 kts | 108° |
| 2026-05-08 21:24 | 13.23576 | 77.36326 | 7785 ft | 259 kts | 108° |
| 2026-05-08 21:25 | 13.22983 | 77.38000 | 7575 ft | 239 kts | 108° |
| 2026-05-08 21:25 | 13.22425 | 77.39569 | 7429 ft | 229 kts | 108° |
| 2026-05-08 21:25 | 13.21896 | 77.41062 | 7324 ft | 216 kts | 108° |
| 2026-05-08 21:25 | 13.21398 | 77.42465 | 7128 ft | 207 kts | 108° |
| 2026-05-08 21:26 | 13.21023 | 77.43837 | 6943 ft | 193 kts | 96° |
| 2026-05-08 21:26 | 13.20934 | 77.45180 | 6836 ft | 185 kts | 91° |
| 2026-05-08 21:26 | 13.20906 | 77.46495 | 6682 ft | 184 kts | 90° |
| 2026-05-08 21:26 | 13.20892 | 77.47797 | 6545 ft | 181 kts | 90° |
| 2026-05-08 21:27 | 13.20881 | 77.49087 | 6404 ft | 181 kts | 90° |
| 2026-05-08 21:27 | 13.20871 | 77.50371 | 6257 ft | 178 kts | 90° |
| 2026-05-08 21:27 | 13.20859 | 77.51609 | 6141 ft | 169 kts | 90° |
| 2026-05-08 21:27 | 13.20848 | 77.52784 | 6020 ft | 162 kts | 90° |
| 2026-05-08 21:28 | 13.20839 | 77.53937 | 5801 ft | 162 kts | 90° |
| 2026-05-08 21:28 | 13.20830 | 77.55077 | 5583 ft | 161 kts | 90° |
| 2026-05-08 21:28 | 13.20821 | 77.56238 | 5371 ft | 161 kts | 90° |
| 2026-05-08 21:28 | 13.20813 | 77.57350 | 5165 ft | 160 kts | 90° |
| 2026-05-08 21:29 | 13.20801 | 77.58471 | 4952 ft | 161 kts | 90° |
| 2026-05-08 21:29 | 13.20792 | 77.59616 | 4744 ft | 161 kts | 90° |
| 2026-05-08 21:29 | 13.20783 | 77.60764 | 4527 ft | 160 kts | 90° |
| 2026-05-08 21:29 | 13.20773 | 77.61907 | 4312 ft | 160 kts | 90° |
| 2026-05-08 21:30 | 13.20763 | 77.63052 | 4108 ft | 161 kts | 90° |
| 2026-05-08 21:30 | 13.20754 | 77.64200 | 3890 ft | 160 kts | 90° |
| 2026-05-08 21:30 | 13.20744 | 77.65341 | 3675 ft | 160 kts | 90° |
| 2026-05-08 21:30 | 13.20741 | 77.66479 | 3466 ft | 159 kts | 90° |
| 2026-05-08 21:31 | 13.20728 | 77.67615 | 3262 ft | 160 kts | 91° |
| 2026-05-08 21:31 | 13.20716 | 77.68742 | 3045 ft | 161 kts | 90° |
| 2026-05-08 21:31 | 13.20708 | 77.69844 | 2984 ft | 143 kts | 90° |
| 2026-05-08 21:31 | 13.20701 | 77.70734 | 2953 ft | 107 kts | 90° |
| 2026-05-08 21:32 | 13.20694 | 77.71372 | 2945 ft | 72 kts | 90° |
| 2026-05-08 21:32 | 13.20691 | 77.71801 | 2939 ft | 56 kts | 90° |
| 2026-05-08 21:32 | 13.20689 | 77.72108 | 2932 ft | 25 kts | 91° |
| 2026-05-08 21:32 | 13.20665 | 77.72255 | 2928 ft | 20 kts | 127° |
| 2026-05-08 21:33 | 13.20562 | 77.72282 | 2928 ft | 12 kts | 179° |
| 2026-05-08 21:33 | 13.20478 | 77.72280 | 2928 ft | 10 kts | 186° |
| 2026-05-08 21:33 | 13.20435 | 77.72228 | 2929 ft | 10 kts | 266° |
| 2026-05-08 21:33 | 13.20435 | 77.72187 | 2930 ft | 0 kts | 269° |
| 2026-05-08 21:34 | 13.20435 | 77.72184 | 2930 ft | 2 kts | 269° |
| 2026-05-08 21:34 | 13.20426 | 77.72150 | 2931 ft | 8 kts | 245° |
| 2026-05-08 21:34 | 13.20362 | 77.72114 | 2932 ft | 15 kts | 179° |
| 2026-05-08 21:34 | 13.20236 | 77.72111 | 2932 ft | 22 kts | 181° |
| 2026-05-08 21:35 | 13.20081 | 77.72111 | 2931 ft | 22 kts | 180° |
| 2026-05-08 21:35 | 13.19926 | 77.72109 | 2929 ft | 21 kts | 180° |
| 2026-05-08 21:35 | 13.19851 | 77.72109 | 2928 ft | 2 kts | 180° |
| 2026-05-08 21:35 | 13.19839 | 77.72109 | 2935 ft | 2 kts | 183° |
| 2026-05-08 21:36 | 13.19827 | 77.72102 | 2932 ft | 3 kts | 214° |
| 2026-05-08 21:36 | 13.19808 | 77.72084 | 2932 ft | 5 kts | 226° |
| 2026-05-08 21:36 | 13.19790 | 77.72051 | 2934 ft | 6 kts | 256° |
| 2026-05-08 21:36 | 13.19783 | 77.72019 | 2938 ft | 0 kts | 256° |
| 2026-05-08 21:37 | 13.19783 | 77.72015 | 2938 ft | 0 kts | 256° |